Time,TemperatureF,DewpointF,PressureIn,WindDirection,WindDirectionDegrees,WindSpeedMPH,WindSpeedGustMPH,Humidity,HourlyPrecipIn,Conditions,Clouds,dailyrainin,SoftwareType,DateUTC
2013-01-30 00:30:00,59.9,56.0,30.09,SSW,202,0.0,13.4,87,-99.99,,,0.00,VWS V14.01,2013-01-30 05:30:00,
2013-01-30 01:00:00,60.3,56.7,30.06,NW,307,4.0,10.1,88,-99.99,,,0.00,VWS V14.01,2013-01-30 06:00:00,
2013-01-30 01:30:00,60.6,57.0,30.06,WSW,254,2.7,12.1,88,-99.99,,,0.00,VWS V14.01,2013-01-30 06:30:00,
2013-01-30 02:00:00,60.8,55.9,30.03,North,10,0.0,10.1,84,-99.99,,,0.00,VWS V14.01,2013-01-30 07:00:00,
2013-01-30 02:30:00,60.8,54.6,30.06,SSE,164,5.4,13.0,80,-99.99,,,0.00,VWS V14.01,2013-01-30 07:30:00,
2013-01-30 03:00:00,61.5,55.0,30.03,South,176,8.7,14.8,79,-99.99,,,0.00,VWS V14.01,2013-01-30 08:00:00,
2013-01-30 03:30:00,61.2,55.0,30.03,SSE,157,6.9,19.5,80,-99.99,,,0.00,VWS V14.01,2013-01-30 08:30:00,
2013-01-30 04:00:00,61.3,56.1,30.00,SSE,155,7.8,17.2,83,-99.99,,,0.00,VWS V14.01,2013-01-30 09:00:00,
2013-01-30 04:30:00,61.5,56.3,30.00,ESE,115,0.0,18.6,83,-99.99,,,0.00,VWS V14.01,2013-01-30 09:30:00,
2013-01-30 05:00:00,61.2,57.0,29.97,South,178,3.1,20.6,86,-99.99,,,0.04,VWS V14.01,2013-01-30 10:00:00,
2013-01-30 05:30:00,61.3,57.8,29.97,SE,129,9.2,18.6,88,-99.99,,,0.04,VWS V14.01,2013-01-30 10:30:00,
2013-01-30 06:00:00,61.3,58.1,29.94,SSE,148,6.7,15.2,89,-99.99,,,0.04,VWS V14.01,2013-01-30 11:00:00,
2013-01-30 06:30:00,61.2,57.9,29.94,SW,236,2.7,16.8,89,-99.99,,,0.04,VWS V14.01,2013-01-30 11:30:00,
2013-01-30 07:00:00,61.2,58.2,29.94,East,100,4.9,15.4,90,-99.99,,,0.04,VWS V14.01,2013-01-30 12:00:00,
2013-01-30 07:30:00,61.3,58.7,29.91,SSE,164,8.3,17.7,91,-99.99,,,0.04,VWS V14.01,2013-01-30 12:30:00,
2013-01-30 08:00:00,61.5,58.9,29.91,South,187,4.5,14.8,91,-99.99,,,0.20,VWS V14.01,2013-01-30 13:00:00,
2013-01-30 08:30:00,61.9,59.5,29.91,WSW,251,4.0,15.9,92,-99.99,,,0.20,VWS V14.01,2013-01-30 13:30:00,
2013-01-30 09:00:00,62.2,59.9,29.91,SSE,166,5.4,18.1,92,-99.99,,,0.20,VWS V14.01,2013-01-30 14:00:00,
2013-01-30 09:30:00,63.1,61.1,29.88,SSW,192,3.6,15.9,93,-99.99,,,0.20,VWS V14.01,2013-01-30 14:30:00,
2013-01-30 10:00:00,63.0,60.9,29.88,South,183,3.1,17.7,93,-99.99,,,0.20,VWS V14.01,2013-01-30 15:00:00,
2013-01-30 10:30:00,63.1,60.8,29.88,East,95,5.8,21.0,92,-99.99,,,0.20,VWS V14.01,2013-01-30 15:30:00,
2013-01-30 11:00:00,63.3,60.7,29.88,SSE,150,6.9,17.7,91,-99.99,,,0.20,VWS V14.01,2013-01-30 16:00:00,
2013-01-30 11:30:00,63.0,59.7,29.88,SW,233,8.3,14.3,89,-99.99,,,0.24,VWS V14.01,2013-01-30 16:30:00,
2013-01-30 12:00:00,56.7,52.2,29.85,WSW,252,6.3,14.8,85,-99.99,,,0.67,VWS V14.01,2013-01-30 17:00:00,
2013-01-30 12:30:00,55.4,51.9,29.80,WSW,246,6.3,13.9,88,-99.99,,,1.10,VWS V14.01,2013-01-30 17:30:00,
2013-01-30 13:00:00,54.9,52.0,29.83,West,274,4.5,35.1,90,-99.99,,,1.30,VWS V14.01,2013-01-30 18:00:00,
2013-01-30 13:30:00,54.7,52.1,29.83,WSW,255,4.0,9.2,91,-99.99,,,1.38,VWS V14.01,2013-01-30 18:30:00,
2013-01-30 14:00:00,55.0,52.5,29.80,West,272,3.6,6.9,91,-99.99,,,1.42,VWS V14.01,2013-01-30 19:00:00,
2013-01-30 14:30:00,55.2,52.9,29.80,WSW,258,0.0,8.7,92,-99.99,,,1.50,VWS V14.01,2013-01-30 19:30:00,
2013-01-30 15:00:00,55.0,52.8,29.77,West,264,0.0,7.4,92,-99.99,,,1.61,VWS V14.01,2013-01-30 20:00:00,
2013-01-30 15:30:00,54.7,52.7,29.77,SW,230,6.3,9.6,93,-99.99,,,1.73,VWS V14.01,2013-01-30 20:30:00,
2013-01-30 16:00:00,51.6,49.4,29.80,WSW,242,7.4,15.2,92,-99.99,,,1.81,VWS V14.01,2013-01-30 21:00:00,
2013-01-30 16:30:00,48.7,46.8,29.83,SW,223,6.9,12.5,93,-99.99,,,1.89,VWS V14.01,2013-01-30 21:30:00,
2013-01-30 17:00:00,46.4,44.5,29.83,SW,235,5.8,12.1,93,-99.99,,,1.97,VWS V14.01,2013-01-30 22:00:00,
2013-01-30 19:00:00,45.3,43.7,29.83,SE,145,7.4,7.4,94,-99.99,,,2.05,VWS V14.01,2013-01-31 00:00:00,
2013-01-30 19:30:00,45.1,43.5,29.80,SW,231,3.1,10.1,94,-99.99,,,2.05,VWS V14.01,2013-01-31 00:30:00,
2013-01-30 20:00:00,44.1,42.5,29.80,WNW,295,3.6,8.7,94,-99.99,,,2.05,VWS V14.01,2013-01-31 01:00:00,
2013-01-30 20:30:00,43.2,41.5,29.80,West,275,3.1,13.9,94,-99.99,,,2.05,VWS V14.01,2013-01-31 01:30:00,
2013-01-30 21:00:00,43.0,41.1,29.80,WSW,254,5.8,11.6,93,-99.99,,,2.05,VWS V14.01,2013-01-31 02:00:00,
2013-01-30 21:30:00,42.8,40.6,29.80,West,271,6.9,11.2,92,-99.99,,,2.05,VWS V14.01,2013-01-31 02:30:00,
2013-01-30 22:00:00,42.8,40.4,29.83,WSW,242,11.2,20.1,91,-99.99,,,2.05,VWS V14.01,2013-01-31 03:00:00,
2013-01-30 22:30:00,39.2,36.0,29.83,WSW,244,9.2,21.5,88,-99.99,,,2.13,VWS V14.01,2013-01-31 03:30:00,
2013-01-30 23:00:00,38.1,34.9,29.88,West,260,6.9,18.6,88,-99.99,,,2.13,VWS V14.01,2013-01-31 04:00:00,
2013-01-30 23:30:00,36.9,33.4,29.91,WSW,238,7.8,15.4,87,-99.99,,,2.13,VWS V14.01,2013-01-31 04:30:00,